LSZR/ACH METAR and TAF weather

Enter ICAO airport designator
Station Type Date Time Source
LSZR METAR 2018/12/13 05:50 UTC NOAA

LSZR 130550Z 10005KT CAVOK M06/M08 Q1014 NOSIG RMK A


Station Type Date Time Source
LSZR Decoded METAR 2018/12/13 05:50 UTC NOAA

Saint Gallen-Altenrhein, Switzerland (LSZR) 47-29-06N 009-33-43E
Dec 13, 2018 - 12:50 AM EST / 2018.12.13 0550 UTC
Wind: from the E (100 degrees) at 6 MPH (5 KT):0
Visibility: greater than 7 mile(s):0
Temperature: 21 F (-6 C)
Windchill: 14 F (-10 C):1
Dew Point: 17 F (-8 C)
Relative Humidity: 85%
Pressure (altimeter): 29.94 in. Hg (1014 hPa)
ob: LSZR 130550Z 10005KT CAVOK M06/M08 Q1014 NOSIG RMK A
cycle: 6

Station Type Date Time Source
LSZR TAF 2014/12/22 20:03 UTC NOAA

TAF
AMD LSZR 222054Z 2220/2224 CNL


Example: see airport list